sensor_id;sensor_type;location;lat;lon;timestamp;P1;durP1;ratioP1;P2;durP2;ratioP2
4724;SDS011;2376;53.544;10.226;2023-06-19T00:00:52;6.60;;;6.00;;
4724;SDS011;2376;53.544;10.226;2023-06-19T00:03:19;7.03;;;6.37;;
4724;SDS011;2376;53.544;10.226;2023-06-19T00:05:46;6.93;;;6.43;;
4724;SDS011;2376;53.544;10.226;2023-06-19T00:08:12;6.37;;;5.97;;
4724;SDS011;2376;53.544;10.226;2023-06-19T00:10:41;5.80;;;5.50;;
4724;SDS011;2376;53.544;10.226;2023-06-19T00:13:07;9.80;;;6.77;;
4724;SDS011;2376;53.544;10.226;2023-06-19T00:15:34;7.67;;;6.97;;
4724;SDS011;2376;53.544;10.226;2023-06-19T00:18:01;7.13;;;6.63;;
4724;SDS011;2376;53.544;10.226;2023-06-19T00:20:27;6.93;;;6.23;;
4724;SDS011;2376;53.544;10.226;2023-06-19T00:22:54;7.43;;;6.93;;
4724;SDS011;2376;53.544;10.226;2023-06-19T00:25:21;9.50;;;7.57;;
4724;SDS011;2376;53.544;10.226;2023-06-19T00:27:49;7.07;;;6.57;;
4724;SDS011;2376;53.544;10.226;2023-06-19T00:30:16;7.00;;;6.50;;
4724;SDS011;2376;53.544;10.226;2023-06-19T00:32:43;7.97;;;7.23;;
4724;SDS011;2376;53.544;10.226;2023-06-19T00:35:13;7.77;;;7.17;;
4724;SDS011;2376;53.544;10.226;2023-06-19T00:37:40;7.67;;;7.03;;
4724;SDS011;2376;53.544;10.226;2023-06-19T00:40:09;7.20;;;6.50;;
4724;SDS011;2376;53.544;10.226;2023-06-19T00:42:41;7.87;;;7.07;;
4724;SDS011;2376;53.544;10.226;2023-06-19T00:45:09;7.73;;;7.23;;
4724;SDS011;2376;53.544;10.226;2023-06-19T00:47:36;7.00;;;6.50;;
4724;SDS011;2376;53.544;10.226;2023-06-19T00:50:04;7.73;;;7.07;;
4724;SDS011;2376;53.544;10.226;2023-06-19T00:52:32;7.17;;;6.67;;
4724;SDS011;2376;53.544;10.226;2023-06-19T00:54:59;8.23;;;7.60;;
4724;SDS011;2376;53.544;10.226;2023-06-19T00:57:26;7.83;;;7.13;;
4724;SDS011;2376;53.544;10.226;2023-06-19T00:59:54;7.20;;;6.70;;
4724;SDS011;2376;53.544;10.226;2023-06-19T01:02:23;7.70;;;7.07;;
4724;SDS011;2376;53.544;10.226;2023-06-19T01:04:50;7.53;;;6.90;;
4724;SDS011;2376;53.544;10.226;2023-06-19T01:07:18;8.70;;;7.97;;
4724;SDS011;2376;53.544;10.226;2023-06-19T01:09:50;7.47;;;6.93;;
4724;SDS011;2376;53.544;10.226;2023-06-19T01:12:20;7.80;;;7.20;;
4724;SDS011;2376;53.544;10.226;2023-06-19T01:14:52;7.07;;;6.57;;
4724;SDS011;2376;53.544;10.226;2023-06-19T01:17:24;7.07;;;6.57;;
4724;SDS011;2376;53.544;10.226;2023-06-19T01:19:52;8.53;;;7.93;;
4724;SDS011;2376;53.544;10.226;2023-06-19T01:22:25;8.33;;;7.63;;
4724;SDS011;2376;53.544;10.226;2023-06-19T01:24:52;8.97;;;8.27;;
4724;SDS011;2376;53.544;10.226;2023-06-19T01:27:19;8.20;;;7.70;;
4724;SDS011;2376;53.544;10.226;2023-06-19T01:29:46;8.20;;;7.40;;
4724;SDS011;2376;53.544;10.226;2023-06-19T01:32:15;8.50;;;7.83;;
4724;SDS011;2376;53.544;10.226;2023-06-19T01:34:46;8.33;;;7.57;;
4724;SDS011;2376;53.544;10.226;2023-06-19T01:37:14;8.60;;;7.90;;
4724;SDS011;2376;53.544;10.226;2023-06-19T01:39:43;7.80;;;7.30;;
4724;SDS011;2376;53.544;10.226;2023-06-19T01:42:11;7.93;;;7.40;;
4724;SDS011;2376;53.544;10.226;2023-06-19T01:44:39;7.60;;;7.00;;
4724;SDS011;2376;53.544;10.226;2023-06-19T01:47:08;8.67;;;7.80;;
4724;SDS011;2376;53.544;10.226;2023-06-19T01:49:36;8.23;;;7.60;;
4724;SDS011;2376;53.544;10.226;2023-06-19T01:52:03;8.03;;;7.53;;
4724;SDS011;2376;53.544;10.226;2023-06-19T01:54:30;8.07;;;7.37;;
4724;SDS011;2376;53.544;10.226;2023-06-19T01:56:58;7.50;;;6.80;;
4724;SDS011;2376;53.544;10.226;2023-06-19T01:59:25;7.60;;;6.90;;
4724;SDS011;2376;53.544;10.226;2023-06-19T02:01:52;7.43;;;6.83;;
4724;SDS011;2376;53.544;10.226;2023-06-19T02:04:18;8.53;;;7.73;;
4724;SDS011;2376;53.544;10.226;2023-06-19T02:06:45;10.37;;;7.80;;
4724;SDS011;2376;53.544;10.226;2023-06-19T02:09:12;8.70;;;8.03;;
4724;SDS011;2376;53.544;10.226;2023-06-19T02:11:38;8.73;;;8.03;;
4724;SDS011;2376;53.544;10.226;2023-06-19T02:14:08;8.63;;;7.93;;
4724;SDS011;2376;53.544;10.226;2023-06-19T02:16:36;9.30;;;8.40;;
4724;SDS011;2376;53.544;10.226;2023-06-19T02:19:02;9.57;;;8.53;;
4724;SDS011;2376;53.544;10.226;2023-06-19T02:21:30;8.43;;;7.83;;
4724;SDS011;2376;53.544;10.226;2023-06-19T02:23:56;8.10;;;7.50;;
4724;SDS011;2376;53.544;10.226;2023-06-19T02:26:23;9.00;;;8.27;;
4724;SDS011;2376;53.544;10.226;2023-06-19T02:28:52;8.90;;;8.20;;
4724;SDS011;2376;53.544;10.226;2023-06-19T02:31:20;8.30;;;7.70;;
4724;SDS011;2376;53.544;10.226;2023-06-19T02:33:47;8.80;;;8.20;;
4724;SDS011;2376;53.544;10.226;2023-06-19T02:36:14;9.63;;;8.83;;
4724;SDS011;2376;53.544;10.226;2023-06-19T02:38:44;8.13;;;7.53;;
4724;SDS011;2376;53.544;10.226;2023-06-19T02:41:11;9.10;;;8.20;;
4724;SDS011;2376;53.544;10.226;2023-06-19T02:43:38;8.50;;;7.80;;
4724;SDS011;2376;53.544;10.226;2023-06-19T02:46:05;8.40;;;7.80;;
4724;SDS011;2376;53.544;10.226;2023-06-19T02:48:33;8.90;;;8.20;;
4724;SDS011;2376;53.544;10.226;2023-06-19T02:51:00;8.57;;;7.97;;
4724;SDS011;2376;53.544;10.226;2023-06-19T02:53:27;8.40;;;7.70;;
4724;SDS011;2376;53.544;10.226;2023-06-19T02:55:53;8.97;;;8.07;;
4724;SDS011;2376;53.544;10.226;2023-06-19T02:58:20;8.67;;;8.00;;
4724;SDS011;2376;53.544;10.226;2023-06-19T03:00:47;9.20;;;8.20;;
4724;SDS011;2376;53.544;10.226;2023-06-19T03:03:14;8.90;;;8.30;;
4724;SDS011;2376;53.544;10.226;2023-06-19T03:05:42;8.97;;;8.23;;
4724;SDS011;2376;53.544;10.226;2023-06-19T03:08:09;9.13;;;8.43;;
4724;SDS011;2376;53.544;10.226;2023-06-19T03:10:35;9.97;;;9.17;;
4724;SDS011;2376;53.544;10.226;2023-06-19T03:13:02;10.07;;;9.20;;
4724;SDS011;2376;53.544;10.226;2023-06-19T03:15:29;9.10;;;8.37;;
4724;SDS011;2376;53.544;10.226;2023-06-19T03:17:55;9.57;;;8.83;;
4724;SDS011;2376;53.544;10.226;2023-06-19T03:20:22;9.90;;;9.17;;
4724;SDS011;2376;53.544;10.226;2023-06-19T03:22:50;9.07;;;8.37;;
4724;SDS011;2376;53.544;10.226;2023-06-19T03:25:16;8.73;;;8.03;;
4724;SDS011;2376;53.544;10.226;2023-06-19T03:27:44;8.90;;;8.10;;
4724;SDS011;2376;53.544;10.226;2023-06-19T03:30:11;10.40;;;9.10;;
4724;SDS011;2376;53.544;10.226;2023-06-19T03:32:38;7.97;;;7.37;;
4724;SDS011;2376;53.544;10.226;2023-06-19T03:35:05;10.03;;;9.23;;
4724;SDS011;2376;53.544;10.226;2023-06-19T03:37:32;11.27;;;8.87;;
4724;SDS011;2376;53.544;10.226;2023-06-19T03:40:00;9.50;;;8.70;;
4724;SDS011;2376;53.544;10.226;2023-06-19T03:42:28;11.80;;;9.27;;
4724;SDS011;2376;53.544;10.226;2023-06-19T03:44:54;10.00;;;9.00;;
4724;SDS011;2376;53.544;10.226;2023-06-19T03:47:21;9.70;;;9.03;;
4724;SDS011;2376;53.544;10.226;2023-06-19T03:49:48;10.00;;;9.13;;
4724;SDS011;2376;53.544;10.226;2023-06-19T03:52:14;10.07;;;9.07;;
4724;SDS011;2376;53.544;10.226;2023-06-19T03:54:41;9.97;;;8.93;;
4724;SDS011;2376;53.544;10.226;2023-06-19T03:57:09;10.50;;;8.70;;
4724;SDS011;2376;53.544;10.226;2023-06-19T03:59:36;9.80;;;8.93;;
4724;SDS011;2376;53.544;10.226;2023-06-19T04:02:02;9.87;;;9.17;;
4724;SDS011;2376;53.544;10.226;2023-06-19T04:04:29;13.03;;;8.90;;
4724;SDS011;2376;53.544;10.226;2023-06-19T04:06:56;9.93;;;9.00;;
4724;SDS011;2376;53.544;10.226;2023-06-19T04:09:24;10.07;;;9.37;;
4724;SDS011;2376;53.544;10.226;2023-06-19T04:11:50;10.20;;;9.50;;
4724;SDS011;2376;53.544;10.226;2023-06-19T04:14:18;9.60;;;9.00;;
4724;SDS011;2376;53.544;10.226;2023-06-19T04:16:48;9.20;;;8.50;;
4724;SDS011;2376;53.544;10.226;2023-06-19T04:19:14;9.23;;;8.43;;
4724;SDS011;2376;53.544;10.226;2023-06-19T04:21:41;9.80;;;8.90;;
4724;SDS011;2376;53.544;10.226;2023-06-19T04:24:08;10.07;;;9.20;;
4724;SDS011;2376;53.544;10.226;2023-06-19T04:26:35;10.40;;;9.50;;
4724;SDS011;2376;53.544;10.226;2023-06-19T04:29:02;9.40;;;8.70;;
4724;SDS011;2376;53.544;10.226;2023-06-19T04:31:31;10.30;;;9.40;;
4724;SDS011;2376;53.544;10.226;2023-06-19T04:33:58;10.13;;;9.43;;
4724;SDS011;2376;53.544;10.226;2023-06-19T04:36:24;10.77;;;9.97;;
4724;SDS011;2376;53.544;10.226;2023-06-19T04:38:51;13.13;;;8.80;;
4724;SDS011;2376;53.544;10.226;2023-06-19T04:41:18;9.60;;;8.80;;
4724;SDS011;2376;53.544;10.226;2023-06-19T04:43:44;10.17;;;9.17;;
4724;SDS011;2376;53.544;10.226;2023-06-19T04:46:11;9.33;;;8.63;;
4724;SDS011;2376;53.544;10.226;2023-06-19T04:48:39;11.00;;;10.10;;
4724;SDS011;2376;53.544;10.226;2023-06-19T04:51:06;10.33;;;9.57;;
4724;SDS011;2376;53.544;10.226;2023-06-19T04:53:32;10.20;;;9.23;;
4724;SDS011;2376;53.544;10.226;2023-06-19T04:55:59;10.23;;;9.40;;
4724;SDS011;2376;53.544;10.226;2023-06-19T04:58:26;8.50;;;7.97;;
4724;SDS011;2376;53.544;10.226;2023-06-19T05:00:53;9.77;;;9.07;;
4724;SDS011;2376;53.544;10.226;2023-06-19T05:03:20;8.87;;;8.27;;
4724;SDS011;2376;53.544;10.226;2023-06-19T05:05:48;10.93;;;9.83;;
4724;SDS011;2376;53.544;10.226;2023-06-19T05:08:15;9.77;;;8.93;;
4724;SDS011;2376;53.544;10.226;2023-06-19T05:10:41;10.50;;;9.70;;
4724;SDS011;2376;53.544;10.226;2023-06-19T05:13:08;10.27;;;9.53;;
4724;SDS011;2376;53.544;10.226;2023-06-19T05:15:34;10.43;;;9.63;;
4724;SDS011;2376;53.544;10.226;2023-06-19T05:18:01;10.03;;;9.13;;
4724;SDS011;2376;53.544;10.226;2023-06-19T05:20:28;10.27;;;9.47;;
4724;SDS011;2376;53.544;10.226;2023-06-19T05:22:56;10.90;;;10.00;;
4724;SDS011;2376;53.544;10.226;2023-06-19T05:25:23;12.30;;;11.30;;
4724;SDS011;2376;53.544;10.226;2023-06-19T05:27:50;11.33;;;9.50;;
4724;SDS011;2376;53.544;10.226;2023-06-19T05:30:16;10.33;;;9.53;;
4724;SDS011;2376;53.544;10.226;2023-06-19T05:32:43;10.63;;;9.70;;
4724;SDS011;2376;53.544;10.226;2023-06-19T05:35:10;10.33;;;9.63;;
4724;SDS011;2376;53.544;10.226;2023-06-19T05:37:37;9.43;;;8.70;;
4724;SDS011;2376;53.544;10.226;2023-06-19T05:40:06;10.57;;;9.80;;
4724;SDS011;2376;53.544;10.226;2023-06-19T05:42:34;10.77;;;9.97;;
4724;SDS011;2376;53.544;10.226;2023-06-19T05:45:01;10.80;;;9.90;;
4724;SDS011;2376;53.544;10.226;2023-06-19T05:47:28;10.67;;;9.87;;
4724;SDS011;2376;53.544;10.226;2023-06-19T05:49:55;10.17;;;9.37;;
4724;SDS011;2376;53.544;10.226;2023-06-19T05:52:22;10.40;;;9.53;;
4724;SDS011;2376;53.544;10.226;2023-06-19T05:54:49;9.90;;;9.17;;
4724;SDS011;2376;53.544;10.226;2023-06-19T05:57:18;10.33;;;9.23;;
4724;SDS011;2376;53.544;10.226;2023-06-19T05:59:45;11.53;;;10.73;;
4724;SDS011;2376;53.544;10.226;2023-06-19T06:02:12;10.60;;;9.90;;
4724;SDS011;2376;53.544;10.226;2023-06-19T06:04:40;10.77;;;9.90;;
4724;SDS011;2376;53.544;10.226;2023-06-19T06:07:07;10.40;;;9.50;;
4724;SDS011;2376;53.544;10.226;2023-06-19T06:09:34;11.37;;;10.40;;
4724;SDS011;2376;53.544;10.226;2023-06-19T06:12:01;11.60;;;9.97;;
4724;SDS011;2376;53.544;10.226;2023-06-19T06:14:29;10.97;;;9.87;;
4724;SDS011;2376;53.544;10.226;2023-06-19T06:16:55;10.70;;;9.80;;
4724;SDS011;2376;53.544;10.226;2023-06-19T06:19:22;11.03;;;10.13;;
4724;SDS011;2376;53.544;10.226;2023-06-19T06:21:49;11.10;;;10.20;;
4724;SDS011;2376;53.544;10.226;2023-06-19T06:24:16;10.50;;;9.60;;
4724;SDS011;2376;53.544;10.226;2023-06-19T06:26:42;11.63;;;10.73;;
4724;SDS011;2376;53.544;10.226;2023-06-19T06:29:10;10.97;;;10.17;;
4724;SDS011;2376;53.544;10.226;2023-06-19T06:31:38;10.33;;;9.47;;
4724;SDS011;2376;53.544;10.226;2023-06-19T06:34:06;9.60;;;8.90;;
4724;SDS011;2376;53.544;10.226;2023-06-19T06:36:33;12.60;;;11.17;;
4724;SDS011;2376;53.544;10.226;2023-06-19T06:39:01;11.47;;;10.57;;
4724;SDS011;2376;53.544;10.226;2023-06-19T06:41:28;11.27;;;10.40;;
4724;SDS011;2376;53.544;10.226;2023-06-19T06:43:55;11.10;;;10.30;;
4724;SDS011;2376;53.544;10.226;2023-06-19T06:46:21;11.13;;;10.23;;
4724;SDS011;2376;53.544;10.226;2023-06-19T06:48:50;11.47;;;10.63;;
4724;SDS011;2376;53.544;10.226;2023-06-19T06:51:16;11.90;;;11.00;;
4724;SDS011;2376;53.544;10.226;2023-06-19T06:53:43;11.30;;;10.30;;
4724;SDS011;2376;53.544;10.226;2023-06-19T06:56:10;11.33;;;10.30;;
4724;SDS011;2376;53.544;10.226;2023-06-19T06:58:36;12.30;;;11.30;;
4724;SDS011;2376;53.544;10.226;2023-06-19T07:01:04;12.07;;;11.17;;
4724;SDS011;2376;53.544;10.226;2023-06-19T07:03:30;12.20;;;11.20;;
4724;SDS011;2376;53.544;10.226;2023-06-19T07:05:58;11.67;;;10.83;;
4724;SDS011;2376;53.544;10.226;2023-06-19T07:08:26;11.20;;;10.33;;
4724;SDS011;2376;53.544;10.226;2023-06-19T07:10:52;11.40;;;10.60;;
4724;SDS011;2376;53.544;10.226;2023-06-19T07:13:19;12.63;;;11.63;;
4724;SDS011;2376;53.544;10.226;2023-06-19T07:15:46;11.30;;;10.43;;
4724;SDS011;2376;53.544;10.226;2023-06-19T07:18:12;11.90;;;11.03;;
4724;SDS011;2376;53.544;10.226;2023-06-19T07:20:39;11.90;;;10.93;;
4724;SDS011;2376;53.544;10.226;2023-06-19T07:23:07;12.00;;;11.20;;
4724;SDS011;2376;53.544;10.226;2023-06-19T07:25:34;12.30;;;11.40;;
4724;SDS011;2376;53.544;10.226;2023-06-19T07:28:01;12.23;;;11.30;;
4724;SDS011;2376;53.544;10.226;2023-06-19T07:30:29;13.33;;;10.27;;
4724;SDS011;2376;53.544;10.226;2023-06-19T07:32:56;12.70;;;11.60;;
4724;SDS011;2376;53.544;10.226;2023-06-19T07:35:22;13.13;;;12.13;;
4724;SDS011;2376;53.544;10.226;2023-06-19T07:37:49;14.93;;;11.60;;
4724;SDS011;2376;53.544;10.226;2023-06-19T07:40:17;12.30;;;11.20;;
4724;SDS011;2376;53.544;10.226;2023-06-19T07:42:44;13.00;;;11.90;;
4724;SDS011;2376;53.544;10.226;2023-06-19T07:45:11;12.50;;;11.50;;
4724;SDS011;2376;53.544;10.226;2023-06-19T07:47:39;12.73;;;11.27;;
4724;SDS011;2376;53.544;10.226;2023-06-19T07:50:06;13.10;;;12.10;;
4724;SDS011;2376;53.544;10.226;2023-06-19T07:52:33;11.73;;;10.83;;
4724;SDS011;2376;53.544;10.226;2023-06-19T07:55:00;11.73;;;10.83;;
4724;SDS011;2376;53.544;10.226;2023-06-19T07:57:28;15.77;;;12.47;;
4724;SDS011;2376;53.544;10.226;2023-06-19T07:59:54;17.57;;;12.40;;
4724;SDS011;2376;53.544;10.226;2023-06-19T08:02:21;13.20;;;12.00;;
4724;SDS011;2376;53.544;10.226;2023-06-19T08:04:48;10.67;;;9.93;;
4724;SDS011;2376;53.544;10.226;2023-06-19T08:07:15;12.60;;;11.70;;
4724;SDS011;2376;53.544;10.226;2023-06-19T08:09:42;13.07;;;11.80;;
4724;SDS011;2376;53.544;10.226;2023-06-19T08:12:09;14.27;;;12.87;;
4724;SDS011;2376;53.544;10.226;2023-06-19T08:14:37;13.27;;;12.27;;
4724;SDS011;2376;53.544;10.226;2023-06-19T08:17:04;11.77;;;11.07;;
4724;SDS011;2376;53.544;10.226;2023-06-19T08:19:30;13.20;;;12.20;;
4724;SDS011;2376;53.544;10.226;2023-06-19T08:21:57;12.00;;;10.90;;
4724;SDS011;2376;53.544;10.226;2023-06-19T08:24:24;11.77;;;10.70;;
4724;SDS011;2376;53.544;10.226;2023-06-19T08:26:50;14.30;;;11.20;;
4724;SDS011;2376;53.544;10.226;2023-06-19T08:29:17;13.17;;;12.17;;
4724;SDS011;2376;53.544;10.226;2023-06-19T08:31:45;13.23;;;12.13;;
4724;SDS011;2376;53.544;10.226;2023-06-19T08:34:12;12.63;;;11.50;;
4724;SDS011;2376;53.544;10.226;2023-06-19T08:36:38;12.50;;;11.40;;
4724;SDS011;2376;53.544;10.226;2023-06-19T08:39:05;12.90;;;11.73;;
4724;SDS011;2376;53.544;10.226;2023-06-19T08:41:33;11.90;;;11.03;;
4724;SDS011;2376;53.544;10.226;2023-06-19T08:44:00;12.40;;;11.40;;
4724;SDS011;2376;53.544;10.226;2023-06-19T08:46:28;13.07;;;11.77;;
4724;SDS011;2376;53.544;10.226;2023-06-19T08:48:56;12.10;;;11.03;;
4724;SDS011;2376;53.544;10.226;2023-06-19T08:51:23;12.70;;;11.70;;
4724;SDS011;2376;53.544;10.226;2023-06-19T08:53:54;11.70;;;10.70;;
4724;SDS011;2376;53.544;10.226;2023-06-19T08:56:22;13.60;;;12.13;;
4724;SDS011;2376;53.544;10.226;2023-06-19T08:58:49;11.70;;;10.90;;
4724;SDS011;2376;53.544;10.226;2023-06-19T09:01:16;13.00;;;10.20;;
4724;SDS011;2376;53.544;10.226;2023-06-19T09:03:44;13.27;;;10.77;;
4724;SDS011;2376;53.544;10.226;2023-06-19T09:06:14;15.63;;;12.50;;
4724;SDS011;2376;53.544;10.226;2023-06-19T09:08:42;11.40;;;10.50;;
4724;SDS011;2376;53.544;10.226;2023-06-19T09:11:08;15.90;;;11.80;;
4724;SDS011;2376;53.544;10.226;2023-06-19T09:13:35;13.53;;;12.10;;
4724;SDS011;2376;53.544;10.226;2023-06-19T09:16:03;11.43;;;10.23;;
4724;SDS011;2376;53.544;10.226;2023-06-19T09:18:31;11.50;;;10.57;;
4724;SDS011;2376;53.544;10.226;2023-06-19T09:21:15;10.50;;;9.50;;
4724;SDS011;2376;53.544;10.226;2023-06-19T09:23:43;11.17;;;10.27;;
4724;SDS011;2376;53.544;10.226;2023-06-19T09:26:09;10.83;;;9.83;;
4724;SDS011;2376;53.544;10.226;2023-06-19T09:28:40;12.63;;;9.83;;
4724;SDS011;2376;53.544;10.226;2023-06-19T09:31:07;10.50;;;9.70;;
4724;SDS011;2376;53.544;10.226;2023-06-19T09:33:34;10.93;;;9.90;;
4724;SDS011;2376;53.544;10.226;2023-06-19T09:36:06;10.97;;;9.97;;
4724;SDS011;2376;53.544;10.226;2023-06-19T09:38:34;9.50;;;8.80;;
4724;SDS011;2376;53.544;10.226;2023-06-19T09:41:04;14.03;;;8.57;;
4724;SDS011;2376;53.544;10.226;2023-06-19T09:43:33;10.67;;;9.77;;
4724;SDS011;2376;53.544;10.226;2023-06-19T09:46:03;9.80;;;9.00;;
4724;SDS011;2376;53.544;10.226;2023-06-19T09:48:31;10.73;;;9.63;;
4724;SDS011;2376;53.544;10.226;2023-06-19T09:51:00;10.60;;;9.70;;
4724;SDS011;2376;53.544;10.226;2023-06-19T09:53:30;9.73;;;8.93;;
4724;SDS011;2376;53.544;10.226;2023-06-19T09:55:58;10.00;;;9.30;;
4724;SDS011;2376;53.544;10.226;2023-06-19T09:58:25;9.90;;;9.10;;
4724;SDS011;2376;53.544;10.226;2023-06-19T10:00:53;9.47;;;8.87;;
4724;SDS011;2376;53.544;10.226;2023-06-19T10:03:20;10.77;;;9.97;;
4724;SDS011;2376;53.544;10.226;2023-06-19T10:05:57;9.77;;;8.97;;
4724;SDS011;2376;53.544;10.226;2023-06-19T10:08:28;10.77;;;9.90;;
4724;SDS011;2376;53.544;10.226;2023-06-19T10:10:55;9.63;;;8.97;;
4724;SDS011;2376;53.544;10.226;2023-06-19T10:13:30;9.23;;;8.70;;
4724;SDS011;2376;53.544;10.226;2023-06-19T10:15:57;9.53;;;8.90;;
4724;SDS011;2376;53.544;10.226;2023-06-19T10:18:24;11.17;;;10.10;;
4724;SDS011;2376;53.544;10.226;2023-06-19T10:20:51;8.83;;;8.23;;
4724;SDS011;2376;53.544;10.226;2023-06-19T10:23:20;10.53;;;9.80;;
4724;SDS011;2376;53.544;10.226;2023-06-19T10:25:49;10.40;;;9.70;;
4724;SDS011;2376;53.544;10.226;2023-06-19T10:28:22;10.57;;;9.73;;
4724;SDS011;2376;53.544;10.226;2023-06-19T10:30:51;9.57;;;8.97;;
4724;SDS011;2376;53.544;10.226;2023-06-19T10:33:20;10.70;;;9.90;;
4724;SDS011;2376;53.544;10.226;2023-06-19T10:35:46;9.70;;;9.00;;
4724;SDS011;2376;53.544;10.226;2023-06-19T10:38:14;11.20;;;10.30;;
4724;SDS011;2376;53.544;10.226;2023-06-19T10:40:42;9.67;;;8.97;;
4724;SDS011;2376;53.544;10.226;2023-06-19T10:43:10;12.53;;;9.83;;
4724;SDS011;2376;53.544;10.226;2023-06-19T10:45:38;11.20;;;10.40;;
4724;SDS011;2376;53.544;10.226;2023-06-19T10:48:05;11.23;;;10.13;;
4724;SDS011;2376;53.544;10.226;2023-06-19T10:50:35;10.67;;;9.77;;
4724;SDS011;2376;53.544;10.226;2023-06-19T10:53:05;11.10;;;10.10;;
4724;SDS011;2376;53.544;10.226;2023-06-19T10:55:32;10.93;;;10.13;;
4724;SDS011;2376;53.544;10.226;2023-06-19T10:57:58;11.37;;;10.30;;
4724;SDS011;2376;53.544;10.226;2023-06-19T11:00:26;10.20;;;9.50;;
4724;SDS011;2376;53.544;10.226;2023-06-19T11:02:55;10.30;;;9.60;;
4724;SDS011;2376;53.544;10.226;2023-06-19T11:05:22;11.53;;;10.63;;
4724;SDS011;2376;53.544;10.226;2023-06-19T11:07:50;11.20;;;10.20;;
4724;SDS011;2376;53.544;10.226;2023-06-19T11:10:21;10.97;;;9.97;;
4724;SDS011;2376;53.544;10.226;2023-06-19T11:12:49;10.63;;;9.93;;
4724;SDS011;2376;53.544;10.226;2023-06-19T11:15:16;10.53;;;9.73;;
4724;SDS011;2376;53.544;10.226;2023-06-19T11:17:42;10.80;;;9.77;;
4724;SDS011;2376;53.544;10.226;2023-06-19T11:20:11;10.60;;;9.80;;
4724;SDS011;2376;53.544;10.226;2023-06-19T11:22:39;10.47;;;9.67;;
4724;SDS011;2376;53.544;10.226;2023-06-19T11:25:07;10.70;;;9.90;;
4724;SDS011;2376;53.544;10.226;2023-06-19T11:27:36;8.80;;;8.20;;
4724;SDS011;2376;53.544;10.226;2023-06-19T11:30:05;10.97;;;10.10;;
4724;SDS011;2376;53.544;10.226;2023-06-19T11:32:33;9.87;;;9.17;;
4724;SDS011;2376;53.544;10.226;2023-06-19T11:35:06;9.77;;;9.20;;
4724;SDS011;2376;53.544;10.226;2023-06-19T11:37:35;11.50;;;10.47;;
4724;SDS011;2376;53.544;10.226;2023-06-19T11:40:02;11.00;;;10.20;;
4724;SDS011;2376;53.544;10.226;2023-06-19T11:42:43;10.10;;;9.30;;
4724;SDS011;2376;53.544;10.226;2023-06-19T11:45:14;9.43;;;8.77;;
4724;SDS011;2376;53.544;10.226;2023-06-19T11:47:42;10.10;;;9.20;;
4724;SDS011;2376;53.544;10.226;2023-06-19T11:50:10;9.10;;;8.37;;
4724;SDS011;2376;53.544;10.226;2023-06-19T11:52:39;9.43;;;8.60;;
4724;SDS011;2376;53.544;10.226;2023-06-19T11:55:06;9.90;;;9.10;;
4724;SDS011;2376;53.544;10.226;2023-06-19T11:57:33;9.87;;;9.17;;
4724;SDS011;2376;53.544;10.226;2023-06-19T12:00:00;10.77;;;9.97;;
4724;SDS011;2376;53.544;10.226;2023-06-19T12:02:31;11.17;;;10.27;;
4724;SDS011;2376;53.544;10.226;2023-06-19T12:04:58;9.80;;;9.10;;
4724;SDS011;2376;53.544;10.226;2023-06-19T12:07:25;10.43;;;9.63;;
4724;SDS011;2376;53.544;10.226;2023-06-19T12:09:53;9.83;;;9.03;;
4724;SDS011;2376;53.544;10.226;2023-06-19T12:12:20;9.90;;;9.20;;
4724;SDS011;2376;53.544;10.226;2023-06-19T12:14:47;9.47;;;8.77;;
4724;SDS011;2376;53.544;10.226;2023-06-19T12:17:13;9.40;;;8.80;;
4724;SDS011;2376;53.544;10.226;2023-06-19T12:19:40;8.30;;;7.70;;
4724;SDS011;2376;53.544;10.226;2023-06-19T12:22:07;9.13;;;8.43;;
4724;SDS011;2376;53.544;10.226;2023-06-19T12:24:33;8.93;;;8.33;;
4724;SDS011;2376;53.544;10.226;2023-06-19T12:27:01;9.10;;;8.30;;
4724;SDS011;2376;53.544;10.226;2023-06-19T12:29:28;8.43;;;7.93;;
4724;SDS011;2376;53.544;10.226;2023-06-19T12:31:59;8.50;;;7.83;;
4724;SDS011;2376;53.544;10.226;2023-06-19T12:34:26;9.57;;;8.63;;
4724;SDS011;2376;53.544;10.226;2023-06-19T12:36:53;7.70;;;7.10;;
4724;SDS011;2376;53.544;10.226;2023-06-19T12:39:22;8.60;;;7.27;;
4724;SDS011;2376;53.544;10.226;2023-06-19T12:41:49;7.47;;;6.97;;
4724;SDS011;2376;53.544;10.226;2023-06-19T12:44:18;7.90;;;7.40;;
4724;SDS011;2376;53.544;10.226;2023-06-19T12:46:44;6.63;;;6.23;;
4724;SDS011;2376;53.544;10.226;2023-06-19T12:49:11;7.43;;;6.70;;
4724;SDS011;2376;53.544;10.226;2023-06-19T12:51:38;7.20;;;6.70;;
4724;SDS011;2376;53.544;10.226;2023-06-19T12:54:04;7.20;;;6.70;;
4724;SDS011;2376;53.544;10.226;2023-06-19T12:56:31;7.33;;;6.73;;
4724;SDS011;2376;53.544;10.226;2023-06-19T12:58:58;7.43;;;7.03;;
4724;SDS011;2376;53.544;10.226;2023-06-19T13:01:26;7.47;;;7.07;;
4724;SDS011;2376;53.544;10.226;2023-06-19T13:03:52;6.73;;;6.33;;
4724;SDS011;2376;53.544;10.226;2023-06-19T13:06:19;6.37;;;5.93;;
4724;SDS011;2376;53.544;10.226;2023-06-19T13:08:46;6.70;;;6.20;;
4724;SDS011;2376;53.544;10.226;2023-06-19T13:11:12;7.13;;;6.63;;
4724;SDS011;2376;53.544;10.226;2023-06-19T13:13:39;6.20;;;5.90;;
4724;SDS011;2376;53.544;10.226;2023-06-19T13:16:06;6.77;;;6.37;;
4724;SDS011;2376;53.544;10.226;2023-06-19T13:18:35;6.83;;;6.13;;
4724;SDS011;2376;53.544;10.226;2023-06-19T13:21:02;6.50;;;6.07;;
4724;SDS011;2376;53.544;10.226;2023-06-19T13:23:29;7.33;;;6.83;;
4724;SDS011;2376;53.544;10.226;2023-06-19T13:25:56;7.20;;;6.50;;
4724;SDS011;2376;53.544;10.226;2023-06-19T13:28:23;7.30;;;6.70;;
4724;SDS011;2376;53.544;10.226;2023-06-19T13:30:49;6.27;;;5.97;;
4724;SDS011;2376;53.544;10.226;2023-06-19T13:33:16;6.97;;;6.27;;
4724;SDS011;2376;53.544;10.226;2023-06-19T13:35:44;5.37;;;5.03;;
4724;SDS011;2376;53.544;10.226;2023-06-19T13:38:11;5.33;;;5.03;;
4724;SDS011;2376;53.544;10.226;2023-06-19T13:40:38;5.50;;;4.53;;
4724;SDS011;2376;53.544;10.226;2023-06-19T13:43:05;5.10;;;4.63;;
4724;SDS011;2376;53.544;10.226;2023-06-19T13:45:31;5.03;;;4.73;;
4724;SDS011;2376;53.544;10.226;2023-06-19T13:47:58;4.93;;;4.50;;
4724;SDS011;2376;53.544;10.226;2023-06-19T13:50:25;5.50;;;5.00;;
4724;SDS011;2376;53.544;10.226;2023-06-19T13:52:54;4.30;;;4.00;;
4724;SDS011;2376;53.544;10.226;2023-06-19T13:55:20;4.77;;;4.37;;
4724;SDS011;2376;53.544;10.226;2023-06-19T13:57:49;4.13;;;3.93;;
4724;SDS011;2376;53.544;10.226;2023-06-19T14:00:17;4.43;;;4.13;;
4724;SDS011;2376;53.544;10.226;2023-06-19T14:02:45;3.83;;;3.63;;
4724;SDS011;2376;53.544;10.226;2023-06-19T14:05:12;4.70;;;4.40;;
4724;SDS011;2376;53.544;10.226;2023-06-19T14:07:40;5.27;;;4.87;;
4724;SDS011;2376;53.544;10.226;2023-06-19T14:10:08;5.43;;;5.07;;
4724;SDS011;2376;53.544;10.226;2023-06-19T14:12:35;5.00;;;4.60;;
4724;SDS011;2376;53.544;10.226;2023-06-19T14:15:02;5.10;;;4.60;;
4724;SDS011;2376;53.544;10.226;2023-06-19T14:17:32;5.87;;;5.30;;
4724;SDS011;2376;53.544;10.226;2023-06-19T14:19:58;5.93;;;5.40;;
4724;SDS011;2376;53.544;10.226;2023-06-19T14:22:25;5.70;;;5.30;;
4724;SDS011;2376;53.544;10.226;2023-06-19T14:24:52;5.77;;;5.37;;
4724;SDS011;2376;53.544;10.226;2023-06-19T14:27:25;7.23;;;6.30;;
4724;SDS011;2376;53.544;10.226;2023-06-19T14:29:52;7.30;;;5.57;;
4724;SDS011;2376;53.544;10.226;2023-06-19T14:32:19;5.60;;;5.30;;
4724;SDS011;2376;53.544;10.226;2023-06-19T14:34:46;6.10;;;5.50;;
4724;SDS011;2376;53.544;10.226;2023-06-19T14:37:12;5.77;;;5.47;;
4724;SDS011;2376;53.544;10.226;2023-06-19T14:39:39;6.40;;;6.00;;
4724;SDS011;2376;53.544;10.226;2023-06-19T14:42:06;6.20;;;5.63;;
4724;SDS011;2376;53.544;10.226;2023-06-19T14:44:34;6.27;;;5.87;;
4724;SDS011;2376;53.544;10.226;2023-06-19T14:47:01;6.07;;;5.77;;
4724;SDS011;2376;53.544;10.226;2023-06-19T14:49:28;6.07;;;5.67;;
4724;SDS011;2376;53.544;10.226;2023-06-19T14:51:55;5.60;;;5.30;;